Leicester, NC

9:45 AM EST on November 27, 2014 (GMT -0500)
Asheville Regional | Change Station
CLOSE
Current Station
Airport
Location: Asheville,
Elevation: 2169 ft
Nearby Weather Stations

Elev 2169 ft 35.43 °N, 82.54 °W | Updated 51 minutes ago

Overcast
Overcast
35 °F
Feels Like 29 °F
N
7
Wind Variable Wind from North

Today
High -- | Low -- °F
--% Chance of Precip.
Yesterday
High -- | Low -- °F
Precip. -- in
7:18 AM 5:18 PM
Waxing Crescent, 30% visible
Pressure 30.09 in
Visibility 7.0 miles
Clouds Few 2900 ft
Mostly Cloudy 3900 ft
Overcast 4900 ft
Windchill 29 °F
Dew Point 31 °F
Humidity 85%
Rainfall 0.00 in
Snow Depth Not available.
UV 0 out of 12
Pollen .10 out of 12
Air Quality Not available.
Flu Activity Not available.
METAR KAVL 271354Z 35006KT 7SM -SN FEW029 BKN039 OVC049 02/M01 A3008 RMK AO2 SNB47 SLP190 P0000 T00171006

More Conditions Fewer Conditions

Pressure 30.09 in
Visibility 7.0 miles
Clouds Few 2900 ft
Mostly Cloudy 3900 ft
Overcast 4900 ft
Windchill 29 °F
Dew Point 31 °F
Humidity 85%
Rainfall 0.00 in
Snow Depth Not available.
UV 0 out of 12
Pollen .10 out of 12
Air Quality Not available.
Flu Activity Not available.
METAR KAVL 271354Z 35006KT 7SM -SN FEW029 BKN039 OVC049 02/M01 A3008 RMK AO2 SNB47 SLP190 P0000 T00171006

More Conditions Fewer Conditions

10-Day Weather Forecast

Almanac

Astronomy

Nov. 27, 2014 Rise Set
Actual Time
Civil Twilight
Nautical Twilight
Astronomical Twilight
Moon
Length of Visible Light
Length of Day
Tomorrow will be .
, % of the Moon is Illuminated

Today's Extremes

State Highs State Lows

Community

WunderPhotos

Upload Photos

1,774,005 photos uploaded!

WunderBlogs® & News

Nearby

Air Quality

  Air Quality AQ Index Pollutant
Not available.

Snow Depth

Station Depth Elevation

Earthquake Activity

City Distance Mag. Time & Date
Minimum magnitude displayed is 2.5.

Coastal Water Temperatures

Place Temperature

Nearby Weather Stations